To NAV CANADA Home Page Login to a new session Search on AWWS site Feedback and Comments Disclaimer Vers la page française équivalente Tips FAQ What's new on the site To the Forecasts and Observations / NOTAM section To "File a Flight Plan" website Publications and other links Update of the User's profile FIC Telephone Numbers My Weather Data Folder Route Weather Data Regional Weather Data Local Weather Data To the Forecasts and Observations / NOTAM section
Request Generated 02/23/2017 at 20:45:37 UTC . Weather information available at that time is displayed.

METAR/TAF

KINGSTON/ON    

METAR CYGK 232000Z 24013G19KT 10SM FEW025 12/09 A2962 RMK CU1 SLP034=
METAR CYGK 231900Z 24015KT 10SM FEW012 SCT020 11/08 A2960 RMK CU1SC3
MIFG OVR LK SLP026=
METAR CYGK 231800Z 23010KT 6SM BR VCSH BKN021 OVC038 08/06 A2961 RMK
SC5SC3 SLP031=

TAF CYGK 231938Z 2320/2404 24012KT P6SM FEW020 TEMPO 2320/2322 BKN020
BECMG 2322/2324 30005KT
RMK NXT FCST BY 240200Z=
Your time UTC time
Weather data provided by Environment Canada and NAV CANADA